Time;durP1;ratioP1;P1;durP2;ratioP2;P2;SDS_P1;SDS_P2;PMS_P1;PMS_P2;Temp;Humidity;BMP_temperature;BMP_pressure;BME280_temperature;BME280_humidity;BME280_pressure;Samples;Min_cycle;Max_cycle;Signal;HPM_P1;HPM_P2
2021/12/26 00:01:37;;;;;;;24.95;14.15;;;23.30;86.20;;;;;;1826638;78;21152;-80
2021/12/26 00:04:13;;;;;;;23.80;12.88;;;23.30;86.10;;;;;;1824922;78;21250;-80
2021/12/26 00:06:41;;;;;;;17.32;12.50;;;23.30;86.20;;;;;;1820601;78;21521;-79
2021/12/26 00:09:12;;;;;;;20.65;12.28;;;23.30;86.20;;;;;;1821747;78;22034;-79
2021/12/26 00:11:42;;;;;;;19.85;10.85;;;;;;;;;;1827007;78;21233;-79
2021/12/26 00:14:13;;;;;;;17.95;12.03;;;23.30;85.50;;;;;;1827798;78;21211;-79
2021/12/26 00:16:45;;;;;;;14.87;10.80;;;23.30;86.20;;;;;;1829217;78;21211;-79
2021/12/26 00:19:16;;;;;;;15.95;11.38;;;23.40;86.00;;;;;;1827012;78;21144;-80
2021/12/26 00:21:48;;;;;;;21.87;11.53;;;23.40;85.50;;;;;;1815894;78;21230;-80
2021/12/26 00:24:19;;;;;;;17.25;11.65;;;23.40;85.50;;;;;;1821604;78;21140;-79
2021/12/26 00:26:50;;;;;;;17.67;10.10;;;23.40;85.20;;;;;;1824902;78;21165;-79
2021/12/26 00:29:21;;;;;;;14.70;11.00;;;23.40;85.30;;;;;;1818612;78;21149;-79
2021/12/26 00:31:52;;;;;;;16.80;12.00;;;23.30;85.40;;;;;;1828629;78;21145;-79
2021/12/26 00:34:23;;;;;;;16.27;11.63;;;23.40;85.70;;;;;;1829846;78;21165;-79
2021/12/26 00:36:54;;;;;;;20.92;12.73;;;23.30;85.50;;;;;;1828858;78;21612;-79
2021/12/26 00:39:25;;;;;;;19.62;13.28;;;23.30;85.50;;;;;;1826947;78;21141;-79
2021/12/26 00:41:55;;;;;;;23.50;13.80;;;23.30;85.50;;;;;;1822896;78;21208;-80
2021/12/26 00:44:27;;;;;;;16.50;12.45;;;23.40;85.80;;;;;;1819819;78;21131;-79
2021/12/26 00:46:58;;;;;;;19.82;13.18;;;23.40;85.90;;;;;;1821003;78;21162;-78
2021/12/26 00:49:30;;;;;;;20.00;12.98;;;23.40;85.60;;;;;;1778866;80;21512;-78
2021/12/26 00:52:01;;;;;;;19.15;12.28;;;23.30;85.40;;;;;;1817526;77;21136;-79
2021/12/26 00:54:33;;;;;;;18.82;10.70;;;23.40;85.20;;;;;;1834291;76;21151;-79
2021/12/26 00:57:05;;;;;;;19.07;11.15;;;23.40;85.00;;;;;;1828442;78;21100;-79
2021/12/26 00:59:36;;;;;;;17.67;11.60;;;23.40;85.00;;;;;;1828093;78;22166;-80
2021/12/26 01:02:08;;;;;;;17.57;11.05;;;23.50;84.60;;;;;;1826031;78;22311;-80
2021/12/26 01:04:39;;;;;;;15.83;10.60;;;23.50;84.30;;;;;;1823460;77;21100;-78
2021/12/26 01:07:25;;;;;;;15.48;10.30;;;23.60;84.30;;;;;;1805366;78;21705;-80
2021/12/26 01:09:49;;;;;;;15.08;9.50;;;23.60;84.10;;;;;;1828661;78;21109;-80
2021/12/26 01:12:18;;;;;;;13.05;10.08;;;23.60;84.00;;;;;;1825615;78;21237;-79
2021/12/26 01:14:55;;;;;;;11.97;9.38;;;23.70;84.00;;;;;;1828500;77;21158;-78
2021/12/26 01:17:24;;;;;;;14.98;10.53;;;23.70;83.70;;;;;;1820310;78;21672;-73
2021/12/26 01:19:54;;;;;;;14.35;9.98;;;23.70;83.60;;;;;;1815685;78;21215;-78
2021/12/26 01:22:26;;;;;;;17.90;10.58;;;23.70;83.70;;;;;;1799393;78;21093;-73
2021/12/26 01:24:57;;;;;;;17.02;10.65;;;23.70;83.80;;;;;;1799740;78;21143;-76
2021/12/26 01:27:29;;;;;;;14.03;9.83;;;23.70;83.60;;;;;;1809270;78;21619;-74
2021/12/26 01:30:00;;;;;;;17.67;10.18;;;23.80;83.40;;;;;;1807741;78;21678;-74
2021/12/26 01:32:31;;;;;;;15.72;10.10;;;23.80;83.40;;;;;;1805327;79;21210;-73
2021/12/26 01:35:01;;;;;;;16.82;11.18;;;23.80;83.40;;;;;;1810731;78;21172;-73
2021/12/26 01:37:32;;;;;;;13.93;9.53;;;23.80;83.40;;;;;;1821490;78;21602;-74
2021/12/26 01:40:04;;;;;;;16.42;9.48;;;23.90;83.40;;;;;;1778315;80;21171;-74
2021/12/26 01:42:35;;;;;;;11.60;9.00;;;23.90;83.10;;;;;;1828162;78;21405;-73
2021/12/26 01:45:07;;;;;;;15.30;9.35;;;24.00;82.90;;;;;;1822943;77;21071;-74
2021/12/26 01:47:38;;;;;;;14.80;9.28;;;24.00;82.60;;;;;;1824599;78;21072;-74
2021/12/26 01:50:10;;;;;;;13.30;8.10;;;24.10;82.70;;;;;;1821911;79;21186;-74
2021/12/26 01:52:41;;;;;;;10.60;8.18;;;24.10;82.30;;;;;;1821838;79;21156;-74
2021/12/26 01:55:23;;;;;;;11.57;8.28;;;24.20;82.00;;;;;;1830908;78;21156;-74
2021/12/26 01:57:44;;;;;;;13.00;8.38;;;24.20;81.70;;;;;;1832470;77;21611;-73
2021/12/26 02:00:16;;;;;;;11.73;7.30;;;24.30;81.60;;;;;;1838191;77;21072;-74
2021/12/26 02:02:48;;;;;;;10.48;7.25;;;24.30;81.40;;;;;;1818507;77;21515;-73
2021/12/26 02:05:20;;;;;;;12.93;8.80;;;24.30;81.20;;;;;;1821807;78;21205;-73
2021/12/26 02:07:51;;;;;;;13.60;8.20;;;24.40;81.30;;;;;;1818882;78;21068;-74
2021/12/26 02:10:21;;;;;;;15.75;9.28;;;24.40;81.20;;;;;;1816863;77;21716;-74
2021/12/26 02:12:52;;;;;;;13.32;7.03;;;24.40;81.40;;;;;;1834289;77;21142;-74
2021/12/26 02:15:23;;;;;;;11.53;6.90;;;24.50;81.10;;;;;;1826983;77;21139;-73
2021/12/26 02:17:54;;;;;;;10.45;5.97;;;24.50;80.50;;;;;;1836615;77;21193;-75
2021/12/26 02:20:36;;;;;;;8.53;4.40;;;24.50;80.50;;;;;;1821363;77;21633;-74
2021/12/26 02:23:07;;;;;;;5.90;4.53;;;24.60;79.50;;;;;;1826836;77;21242;-73
2021/12/26 02:28:03;;;;;;;8.73;5.37;;;24.70;79.10;;;;;;1812458;79;21577;-75
2021/12/26 02:30:34;;;;;;;8.63;4.72;;;24.70;79.10;;;;;;1811586;79;21720;-73
2021/12/26 02:33:10;;;;;;;12.43;5.12;;;24.80;80.10;;;;;;1811222;78;21119;-74
2021/12/26 02:35:57;;;;;;;7.28;4.75;;;24.90;78.50;;;;;;1790777;79;21650;-73
2021/12/26 02:38:28;;;;;;;7.75;5.05;;;24.90;78.20;;;;;;1920154;75;21150;-73
2021/12/26 02:40:59;;;;;;;11.18;4.87;;;25.00;78.30;;;;;;1920062;75;21598;-73
2021/12/26 02:43:32;;;;;;;9.20;5.60;;;25.10;78.10;;;;;;1917528;75;21083;-73
2021/12/26 02:46:06;;;;;;;10.28;4.62;;;25.10;78.10;;;;;;1885340;74;21184;-74
2021/12/26 02:48:37;;;;;;;13.20;5.45;;;25.10;77.70;;;;;;1894268;73;21190;-73
2021/12/26 02:51:09;;;;;;;11.65;5.83;;;25.20;77.60;;;;;;1899047;75;21112;-73
2021/12/26 02:53:40;;;;;;;7.55;4.65;;;25.30;77.50;;;;;;1916038;73;21076;-73
2021/12/26 02:56:10;;;;;;;8.40;4.60;;;25.40;76.60;;;;;;1907066;75;21579;-72
2021/12/26 02:58:42;;;;;;;8.78;4.10;;;25.40;76.10;;;;;;1934685;73;21114;-72
2021/12/26 03:01:15;;;;;;;8.53;4.17;;;25.50;76.20;;;;;;1921221;74;21169;-72
2021/12/26 03:03:46;;;;;;;9.00;4.47;;;25.50;75.90;;;;;;1920027;75;21216;-72
2021/12/26 03:06:28;;;;;;;8.73;5.87;;;25.60;75.30;;;;;;1920397;73;21117;-72
2021/12/26 03:08:54;;;;;;;7.12;4.15;;;25.60;75.30;;;;;;1918581;74;21499;-73
2021/12/26 03:11:23;;;;;;;8.28;4.53;;;25.60;75.30;;;;;;1949647;73;21072;-72
2021/12/26 03:13:54;;;;;;;8.18;4.47;;;25.70;75.10;;;;;;1937425;73;21096;-73
2021/12/26 03:16:25;;;;;;;7.42;3.58;;;25.70;75.30;;;;;;1885393;74;21138;-73
2021/12/26 03:18:58;;;;;;;5.60;3.75;;;25.80;75.00;;;;;;1938758;74;22247;-73
2021/12/26 03:21:29;;;;;;;5.60;3.52;;;25.80;75.20;;;;;;1906341;73;21190;-73
2021/12/26 03:24:00;;;;;;;6.78;4.20;;;25.90;74.90;;;;;;1889681;76;21197;-72
2021/12/26 03:26:31;;;;;;;5.65;3.65;;;25.90;74.70;;;;;;1844105;76;21484;-75
2021/12/26 03:29:02;;;;;;;7.00;3.75;;;26.10;74.00;;;;;;1921509;73;21098;-73
2021/12/26 03:31:32;;;;;;;8.60;5.67;;;26.20;73.60;;;;;;1919950;75;21078;-73
2021/12/26 03:34:05;;;;;;;7.90;4.22;;;26.30;73.10;;;;;;1920377;73;21200;-72
2021/12/26 03:36:36;;;;;;;8.78;5.28;;;26.40;72.90;;;;;;1920272;74;21130;-73
2021/12/26 03:39:07;;;;;;;10.53;5.62;;;26.50;71.80;;;;;;1897585;75;21150;-73
2021/12/26 03:41:38;;;;;;;6.40;4.22;;;26.60;71.80;;;;;;1903144;75;21634;-74
2021/12/26 03:44:09;;;;;;;10.82;5.10;;;26.70;71.90;;;;;;1903670;75;21111;-72
2021/12/26 03:46:40;;;;;;;7.08;4.25;;;26.70;72.20;;;;;;1903136;75;21213;-73
2021/12/26 03:49:11;;;;;;;6.05;4.37;;;26.80;71.50;;;;;;1903214;75;21128;-75
2021/12/26 03:51:42;;;;;;;5.22;3.72;;;26.80;71.50;;;;;;1904204;75;21679;-74
2021/12/26 03:54:13;;;;;;;11.53;3.85;;;26.80;71.50;;;;;;1903847;75;21926;-73
2021/12/26 03:56:45;;;;;;;5.92;3.85;;;26.90;71.70;;;;;;1902234;75;21127;-73
2021/12/26 03:59:16;;;;;;;8.93;3.90;;;27.00;71.30;;;;;;1883713;75;21170;-72
2021/12/26 04:01:47;;;;;;;7.95;4.97;;;27.10;71.10;;;;;;1890667;75;21084;-74
2021/12/26 04:04:18;;;;;;;5.45;3.87;;;27.20;70.90;;;;;;1896910;75;21154;-72
2021/12/26 04:06:49;;;;;;;6.25;3.87;;;27.30;70.70;;;;;;1896174;75;21177;-75
2021/12/26 04:09:21;;;;;;;6.78;4.20;;;27.30;70.30;;;;;;1898153;75;21076;-73
2021/12/26 04:11:52;;;;;;;9.03;3.62;;;27.40;69.70;;;;;;1895850;75;21197;-74
2021/12/26 04:14:23;;;;;;;5.35;3.50;;;27.50;69.80;;;;;;1897380;75;21561;-74
2021/12/26 04:16:54;;;;;;;9.10;4.00;;;27.50;69.80;;;;;;1897261;75;21657;-74
2021/12/26 04:19:25;;;;;;;9.28;4.75;;;27.70;69.20;;;;;;1893928;75;21064;-74
2021/12/26 04:21:56;;;;;;;11.00;6.47;;;27.80;68.90;;;;;;1885664;75;21615;-74
2021/12/26 04:24:27;;;;;;;9.33;5.95;;;27.80;68.90;;;;;;1889680;75;21171;-74
2021/12/26 04:26:59;;;;;;;9.05;5.10;;;27.90;69.50;;;;;;1897053;75;21570;-74
2021/12/26 04:29:29;;;;;;;6.60;4.62;;;28.00;68.90;;;;;;1886705;75;21127;-74
2021/12/26 04:32:00;;;;;;;11.28;7.97;;;28.00;68.50;;;;;;1892394;75;21151;-74
2021/12/26 04:34:32;;;;;;;6.95;5.10;;;28.10;68.30;;;;;;1888105;75;21611;-74
2021/12/26 04:37:03;;;;;;;5.85;4.00;;;28.20;68.10;;;;;;1889267;75;21174;-74
2021/12/26 04:39:34;;;;;;;8.60;5.33;;;28.30;66.40;;;;;;1901971;74;21864;-73
2021/12/26 04:42:06;;;;;;;5.30;3.37;;;28.40;66.90;;;;;;1904573;74;21099;-73
2021/12/26 04:44:37;;;;;;;5.45;3.55;;;28.50;65.90;;;;;;1876536;75;21225;-73
2021/12/26 04:47:08;;;;;;;8.38;4.12;;;28.70;65.90;;;;;;1903421;74;21088;-73
2021/12/26 04:49:39;;;;;;;5.83;4.10;;;28.90;65.50;;;;;;1879340;75;21136;-74
2021/12/26 04:52:10;;;;;;;9.25;3.70;;;29.00;65.10;;;;;;1906531;74;21630;-74
2021/12/26 04:54:41;;;;;;;5.75;3.83;;;29.10;65.20;;;;;;1917033;74;21611;-73
2021/12/26 04:57:11;;;;;;;9.43;5.70;;;;;;;;;;1888245;75;21273;-73
2021/12/26 04:59:42;;;;;;;7.15;4.28;;;29.30;63.70;;;;;;1915669;74;21147;-73
2021/12/26 05:02:13;;;;;;;7.35;5.08;;;29.30;63.90;;;;;;1912131;74;21096;-72
2021/12/26 05:04:44;;;;;;;6.92;3.70;;;29.50;63.30;;;;;;1884028;75;21564;-73
2021/12/26 05:07:15;;;;;;;7.37;4.37;;;29.50;62.80;;;;;;1910772;74;21112;-73
2021/12/26 05:09:46;;;;;;;9.18;4.10;;;29.60;62.80;;;;;;1881816;75;21108;-72
2021/12/26 05:12:17;;;;;;;8.00;3.85;;;29.60;63.00;;;;;;1914246;74;21123;-73
2021/12/26 05:14:48;;;;;;;5.58;3.70;;;29.60;62.50;;;;;;1911487;74;21452;-72
2021/12/26 05:17:19;;;;;;;4.62;3.30;;;29.70;62.70;;;;;;1907406;74;21080;-74
2021/12/26 05:19:50;;;;;;;6.58;3.15;;;29.70;63.20;;;;;;1917901;73;21147;-73
2021/12/26 05:22:21;;;;;;;5.72;3.20;;;29.80;62.10;;;;;;1908980;74;21120;-73
2021/12/26 05:24:53;;;;;;;7.28;3.52;;;29.80;61.80;;;;;;1902285;74;21051;-73
2021/12/26 05:27:24;;;;;;;10.30;4.25;;;29.90;61.50;;;;;;1903872;75;21642;-76
2021/12/26 05:29:55;;;;;;;8.08;4.12;;;29.90;61.40;;;;;;1906383;74;21123;-76
2021/12/26 05:32:26;;;;;;;5.58;3.20;;;29.90;60.80;;;;;;1901926;75;21104;-73
2021/12/26 05:34:57;;;;;;;5.05;3.33;;;29.90;61.40;;;;;;1925013;73;21127;-80
2021/12/26 05:37:27;;;;;;;7.42;3.50;;;29.90;61.80;;;;;;1907773;74;21127;-81
2021/12/26 05:40:00;;;;;;;4.90;2.92;;;29.90;62.30;;;;;;1930261;73;21127;-80
2021/12/26 05:42:32;;;;;;;8.83;3.17;;;29.90;61.80;;;;;;1897073;74;21076;-82
2021/12/26 05:45:04;;;;;;;8.45;3.20;;;29.90;62.40;;;;;;1891737;76;21217;-81
2021/12/26 05:47:34;;;;;;;4.00;2.67;;;29.80;63.10;;;;;;1918161;74;21109;-80
2021/12/26 05:50:07;;;;;;;5.92;3.50;;;29.80;62.60;;;;;;1956674;73;21139;-80
2021/12/26 05:52:38;;;;;;;7.67;3.00;;;29.80;61.60;;;;;;1946477;73;21197;-80
2021/12/26 05:55:10;;;;;;;6.42;3.12;;;29.90;62.70;;;;;;1923970;74;21271;-81
2021/12/26 05:57:41;;;;;;;6.87;3.00;;;30.00;62.40;;;;;;1924160;73;21178;-80
2021/12/26 06:00:15;;;;;;;5.40;3.40;;;30.10;61.90;;;;;;1916813;73;21153;-80
2021/12/26 06:02:52;;;;;;;4.62;2.52;;;30.10;62.10;;;;;;1891982;74;21217;-81
2021/12/26 06:05:24;;;;;;;6.22;2.52;;;30.10;62.40;;;;;;1907532;75;21141;-80
2021/12/26 06:07:55;;;;;;;4.85;2.65;;;29.90;61.50;;;;;;1918145;75;21074;-80
2021/12/26 06:10:25;;;;;;;6.80;2.83;;;29.70;62.00;;;;;;1918525;75;21077;-81
2021/12/26 06:12:56;;;;;;;4.33;2.42;;;29.50;62.80;;;;;;1918069;75;21137;-81
2021/12/26 06:15:26;;;;;;;5.60;2.83;;;29.50;62.30;;;;;;1919160;73;21139;-80
2021/12/26 06:17:57;;;;;;;6.90;2.65;;;29.50;62.40;;;;;;1895088;74;21583;-80
2021/12/26 06:20:29;;;;;;;3.92;2.27;;;29.50;62.90;;;;;;1891981;76;21730;-79
2021/12/26 06:23:00;;;;;;;6.75;2.50;;;29.50;62.20;;;;;;1897717;74;21100;-80
2021/12/26 06:25:32;;;;;;;5.20;2.35;;;29.50;62.60;;;;;;1910675;74;21667;-80
2021/12/26 06:28:03;;;;;;;3.33;2.30;;;29.40;62.30;;;;;;1924645;73;21205;-80
2021/12/26 06:30:34;;;;;;;3.95;2.60;;;29.30;62.60;;;;;;1921390;74;21117;-80
2021/12/26 06:33:05;;;;;;;4.83;3.00;;;29.30;62.80;;;;;;1919611;74;21513;-81
2021/12/26 06:35:36;;;;;;;7.25;3.05;;;29.40;63.70;;;;;;1920607;74;21239;-80
2021/12/26 06:38:07;;;;;;;3.27;2.33;;;29.40;62.40;;;;;;1924072;74;21076;-80
2021/12/26 06:40:38;;;;;;;5.12;2.98;;;29.50;62.50;;;;;;1940205;73;21139;-80
2021/12/26 06:43:11;;;;;;;6.17;3.00;;;29.70;61.60;;;;;;1936537;73;21100;-79
2021/12/26 06:45:40;;;;;;;4.35;3.08;;;29.80;61.60;;;;;;1893753;75;21045;-79
2021/12/26 06:48:12;;;;;;;5.67;2.92;;;29.90;61.50;;;;;;1935571;73;21104;-80
2021/12/26 06:50:45;;;;;;;7.45;4.00;;;30.00;61.60;;;;;;1931550;73;21140;-80
2021/12/26 06:53:16;;;;;;;6.75;4.15;;;30.10;60.30;;;;;;1939962;73;21155;-80
2021/12/26 06:55:48;;;;;;;7.97;4.22;;;30.20;60.40;;;;;;1892439;75;21165;-80
2021/12/26 06:58:19;;;;;;;8.30;4.58;;;30.30;60.10;;;;;;1922274;73;21143;-80
2021/12/26 07:00:50;;;;;;;7.50;4.15;;;30.40;59.10;;;;;;1903413;75;21116;-80
2021/12/26 07:03:21;;;;;;;5.22;3.90;;;30.50;60.30;;;;;;1949823;73;21138;-80
2021/12/26 07:05:51;;;;;;;10.60;4.30;;;30.50;59.80;;;;;;1937692;73;21197;-81
2021/12/26 07:08:23;;;;;;;5.47;3.60;;;30.50;59.10;;;;;;1907043;75;21214;-80
2021/12/26 07:10:54;;;;;;;5.12;3.55;;;30.50;59.90;;;;;;1968116;73;21120;-80
2021/12/26 07:13:25;;;;;;;5.20;3.02;;;30.50;59.90;;;;;;1930310;73;21592;-80
2021/12/26 07:15:55;;;;;;;4.17;3.52;;;30.30;59.70;;;;;;1949308;73;21123;-81
2021/12/26 07:18:26;;;;;;;11.93;5.08;;;30.20;59.90;;;;;;1949332;73;21124;-80
2021/12/26 07:20:57;;;;;;;4.60;2.77;;;30.30;60.10;;;;;;1949317;73;21111;-80
2021/12/26 07:23:28;;;;;;;4.28;2.80;;;30.20;59.90;;;;;;1949494;73;21524;-80
2021/12/26 07:25:59;;;;;;;6.58;3.10;;;30.20;59.80;;;;;;1956787;73;21115;-80
2021/12/26 07:28:29;;;;;;;5.80;3.17;;;30.20;59.90;;;;;;1899488;74;21111;-80
2021/12/26 07:31:01;;;;;;;4.60;2.95;;;30.20;60.00;;;;;;1939476;73;21060;-81
2021/12/26 07:33:32;;;;;;;6.50;3.33;;;30.20;59.60;;;;;;1946575;73;21170;-79
2021/12/26 07:36:03;;;;;;;6.80;3.85;;;30.10;59.70;;;;;;1942767;73;21104;-80
2021/12/26 07:38:34;;;;;;;5.67;3.42;;;29.90;60.90;;;;;;1945162;73;21119;-80
2021/12/26 07:41:06;;;;;;;5.80;4.17;;;29.80;60.50;;;;;;1930772;73;21095;-78
2021/12/26 07:43:37;;;;;;;7.00;3.30;;;29.70;60.90;;;;;;1931158;73;21131;-80
2021/12/26 07:46:08;;;;;;;6.05;4.40;;;29.60;61.40;;;;;;1936433;73;21127;-79
2021/12/26 07:48:39;;;;;;;5.42;3.45;;;29.60;61.40;;;;;;1936346;72;21120;-80
2021/12/26 07:51:10;;;;;;;5.78;3.17;;;29.50;61.80;;;;;;1935685;73;21113;-80
2021/12/26 07:53:40;;;;;;;5.65;3.00;;;29.50;61.60;;;;;;1925853;73;21115;-80
2021/12/26 07:56:11;;;;;;;5.28;3.40;;;29.40;61.80;;;;;;1934218;73;21132;-79
2021/12/26 07:58:42;;;;;;;6.35;3.20;;;29.40;62.30;;;;;;1931929;73;21181;-79
2021/12/26 08:01:13;;;;;;;5.70;3.47;;;29.40;62.50;;;;;;1937011;73;21130;-78
2021/12/26 08:03:44;;;;;;;5.20;3.00;;;29.40;62.10;;;;;;1930468;73;21156;-78
2021/12/26 08:06:20;;;;;;;6.87;3.62;;;29.30;62.20;;;;;;1937758;73;21160;-77
2021/12/26 08:08:50;;;;;;;7.08;3.80;;;29.30;62.20;;;;;;1928483;73;21639;-80
2021/12/26 08:11:21;;;;;;;7.12;5.28;;;29.30;62.30;;;;;;1929261;73;21555;-79
2021/12/26 08:13:52;;;;;;;7.92;4.60;;;29.40;62.30;;;;;;1936898;73;22318;-79
2021/12/26 08:16:23;;;;;;;6.60;3.25;;;29.50;62.00;;;;;;1927392;73;21764;-80
2021/12/26 08:18:55;;;;;;;7.37;4.67;;;29.60;61.20;;;;;;1921274;72;21117;-77
2021/12/26 08:21:25;;;;;;;6.67;4.17;;;29.60;61.70;;;;;;1909007;74;21543;-79
2021/12/26 08:23:56;;;;;;;4.92;2.95;;;29.70;61.70;;;;;;1891924;74;21091;-79
2021/12/26 08:26:27;;;;;;;5.90;3.50;;;29.70;61.10;;;;;;1907369;74;21134;-79
2021/12/26 08:28:58;;;;;;;7.08;4.37;;;29.60;61.50;;;;;;1906758;73;21673;-79
2021/12/26 08:31:30;;;;;;;6.70;4.47;;;29.60;61.40;;;;;;1899730;74;21060;-79
2021/12/26 08:34:04;;;;;;;7.60;4.47;;;29.60;61.50;;;;;;1891748;76;21636;-80
2021/12/26 08:36:33;;;;;;;7.12;4.50;;;29.50;61.60;;;;;;1891801;76;21764;-81
2021/12/26 08:39:04;;;;;;;6.03;4.55;;;29.50;61.70;;;;;;1891944;76;21147;-79
2021/12/26 08:41:35;;;;;;;10.75;4.47;;;29.40;62.50;;;;;;1919439;73;21701;-81
2021/12/26 08:44:06;;;;;;;6.37;4.33;;;29.40;61.60;;;;;;1877548;76;21151;-82
2021/12/26 08:46:37;;;;;;;7.22;4.62;;;29.30;62.30;;;;;;1918766;75;21208;-81
2021/12/26 08:49:08;;;;;;;9.90;4.85;;;29.30;61.90;;;;;;1912363;75;21474;-81
2021/12/26 08:51:39;;;;;;;8.35;5.10;;;29.30;62.20;;;;;;1920487;75;21136;-81
2021/12/26 08:54:10;;;;;;;6.65;3.70;;;29.20;62.30;;;;;;1922806;74;21180;-80
2021/12/26 08:56:42;;;;;;;6.47;4.37;;;29.20;62.20;;;;;;1961168;72;21190;-80
2021/12/26 08:59:13;;;;;;;12.98;4.70;;;29.20;62.50;;;;;;1959221;73;21670;-79
2021/12/26 09:01:45;;;;;;;7.05;4.78;;;29.10;62.70;;;;;;1958945;73;21587;-80
2021/12/26 09:04:16;;;;;;;7.20;5.12;;;29.10;62.70;;;;;;1958995;73;21111;-80
2021/12/26 09:06:48;;;;;;;11.95;5.95;;;29.00;62.70;;;;;;1928715;73;21212;-81
2021/12/26 09:09:18;;;;;;;6.83;4.60;;;29.00;62.90;;;;;;1959217;73;21611;-78
2021/12/26 09:11:49;;;;;;;7.90;5.22;;;29.00;62.60;;;;;;1958095;73;21084;-81
2021/12/26 09:14:20;;;;;;;8.35;3.90;;;29.00;62.80;;;;;;1959056;73;21048;-81
2021/12/26 09:16:52;;;;;;;5.87;3.92;;;29.00;63.20;;;;;;1953793;73;21194;-82
2021/12/26 09:19:23;;;;;;;6.22;3.45;;;29.00;62.90;;;;;;1918216;75;21068;-81
2021/12/26 09:21:55;;;;;;;5.17;3.50;;;29.00;63.10;;;;;;1935471;73;21190;-82
2021/12/26 09:24:26;;;;;;;7.95;4.05;;;29.10;62.70;;;;;;1941030;73;21229;-81
2021/12/26 09:26:57;;;;;;;5.53;3.27;;;29.10;62.50;;;;;;1942704;73;21111;-82
2021/12/26 09:29:28;;;;;;;6.85;4.05;;;29.20;62.50;;;;;;1947982;73;21231;-81
2021/12/26 09:32:02;;;;;;;6.40;3.35;;;29.20;62.00;;;;;;1947342;73;21114;-81
2021/12/26 09:34:33;;;;;;;9.75;3.65;;;29.20;62.30;;;;;;1950003;73;21646;-82
2021/12/26 09:37:06;;;;;;;7.53;3.90;;;29.20;62.20;;;;;;1937490;73;21036;-81
2021/12/26 09:39:39;;;;;;;7.30;5.30;;;29.10;62.40;;;;;;1941104;73;21104;-81
2021/12/26 09:42:10;;;;;;;12.33;4.50;;;29.10;62.50;;;;;;1938555;72;21136;-81
2021/12/26 09:44:41;;;;;;;6.30;4.62;;;29.10;62.70;;;;;;1904173;74;21189;-80
2021/12/26 09:47:12;;;;;;;6.92;4.90;;;29.00;62.60;;;;;;1891043;74;21619;-81
2021/12/26 09:49:43;;;;;;;6.90;4.37;;;29.00;62.90;;;;;;1869322;74;21036;-79
2021/12/26 09:52:13;;;;;;;10.43;4.10;;;29.00;63.00;;;;;;1925530;74;21124;-79
2021/12/26 09:54:45;;;;;;;8.88;4.92;;;28.90;62.90;;;;;;1930598;74;21424;-79
2021/12/26 09:57:16;;;;;;;7.25;4.78;;;28.90;63.00;;;;;;1884231;76;21193;-78
2021/12/26 09:59:48;;;;;;;8.33;4.17;;;28.80;63.20;;;;;;1880160;74;21139;-78
2021/12/26 10:02:19;;;;;;;6.33;4.42;;;28.80;63.40;;;;;;1933618;72;21128;-79
2021/12/26 10:04:52;;;;;;;13.30;5.50;;;28.80;63.70;;;;;;1885790;76;21068;-79
2021/12/26 10:07:26;;;;;;;12.30;5.92;;;28.80;63.80;;;;;;1881977;76;21750;-79
2021/12/26 10:10:00;;;;;;;12.53;5.12;;;28.80;64.00;;;;;;1882009;74;21237;-79
2021/12/26 10:12:33;;;;;;;9.90;5.30;;;28.80;64.10;;;;;;1931115;74;21139;-79
2021/12/26 10:15:05;;;;;;;12.68;4.83;;;28.80;64.20;;;;;;1929876;74;21170;-79
2021/12/26 10:17:36;;;;;;;8.10;4.45;;;28.80;64.40;;;;;;1935707;72;21164;-79
2021/12/26 10:20:09;;;;;;;25.05;8.85;;;28.70;64.40;;;;;;1935813;74;21165;-79
2021/12/26 10:22:40;;;;;;;10.60;5.45;;;28.70;64.70;;;;;;1936831;74;21076;-80
2021/12/26 10:25:14;;;;;;;11.85;7.78;;;28.60;64.60;;;;;;1938916;74;21166;-79
2021/12/26 10:27:47;;;;;;;9.70;6.78;;;28.60;64.90;;;;;;1887415;76;21131;-79
2021/12/26 10:30:22;;;;;;;10.48;6.00;;;28.60;65.10;;;;;;1886291;76;21446;-80
2021/12/26 10:32:51;;;;;;;15.40;9.45;;;28.50;65.00;;;;;;1874732;75;21190;-79
2021/12/26 10:35:22;;;;;;;12.80;6.78;;;28.50;65.20;;;;;;1867554;76;21104;-79
2021/12/26 10:37:54;;;;;;;13.03;7.40;;;28.50;65.20;;;;;;1871212;76;21119;-80
2021/12/26 10:40:27;;;;;;;11.57;7.70;;;28.40;65.20;;;;;;1873703;72;21076;-79
2021/12/26 10:43:01;;;;;;;10.85;7.65;;;28.40;65.30;;;;;;1916194;72;21139;-80
2021/12/26 10:45:34;;;;;;;10.65;7.10;;;28.40;65.50;;;;;;1913889;73;21041;-79
2021/12/26 10:48:07;;;;;;;14.70;8.00;;;28.40;65.50;;;;;;1914652;74;21134;-79
2021/12/26 10:50:41;;;;;;;12.70;9.30;;;28.40;65.70;;;;;;1908517;74;21138;-78
2021/12/26 10:53:14;;;;;;;15.85;10.90;;;28.40;65.90;;;;;;1895470;75;21142;-79
2021/12/26 10:55:51;;;;;;;15.00;8.75;;;28.30;65.90;;;;;;1876460;76;21150;-79
2021/12/26 10:58:23;;;;;;;13.40;9.18;;;28.30;67.00;;;;;;1898232;74;21087;-79
2021/12/26 11:00:57;;;;;;;13.72;7.78;;;28.30;66.30;;;;;;1876518;75;21206;-79
2021/12/26 11:03:31;;;;;;;15.32;7.22;;;28.30;66.30;;;;;;1864760;77;21093;-79
2021/12/26 11:06:06;;;;;;;15.80;6.67;;;28.20;66.30;;;;;;1874832;75;21702;-79
2021/12/26 11:08:41;;;;;;;12.78;7.33;;;28.20;66.50;;;;;;1931269;74;21185;-79
2021/12/26 11:11:16;;;;;;;13.85;7.65;;;28.20;66.60;;;;;;1970258;72;21131;-79
2021/12/26 11:13:47;;;;;;;13.20;8.40;;;28.20;66.70;;;;;;1965177;73;21195;-80
2021/12/26 11:16:18;;;;;;;13.40;7.92;;;28.20;66.80;;;;;;1923483;74;21208;-79
2021/12/26 11:18:52;;;;;;;9.80;7.35;;;28.10;66.80;;;;;;1919830;75;21645;-79
2021/12/26 11:21:23;;;;;;;10.28;7.22;;;28.10;66.90;;;;;;1905604;75;21083;-79
2021/12/26 11:23:54;;;;;;;16.60;8.25;;;28.10;66.90;;;;;;1908374;75;21130;-80
2021/12/26 11:26:25;;;;;;;17.42;8.90;;;28.10;67.10;;;;;;1896942;75;21118;-80
2021/12/26 11:28:56;;;;;;;12.50;8.33;;;28.10;67.80;;;;;;1908376;74;21204;-80
2021/12/26 11:31:30;;;;;;;16.27;8.85;;;28.10;67.40;;;;;;1930283;74;21622;-80
2021/12/26 11:34:04;;;;;;;19.75;9.20;;;28.10;67.40;;;;;;1925616;74;21196;-79
2021/12/26 11:36:54;;;;;;;17.65;9.70;;;28.00;68.20;;;;;;1902175;74;21126;-79
2021/12/26 11:39:25;;;;;;;17.90;10.82;;;28.00;67.50;;;;;;1877739;75;21201;-79
2021/12/26 11:41:56;;;;;;;26.30;13.70;;;28.00;67.50;;;;;;1895057;75;21128;-79
2021/12/26 11:44:33;;;;;;;21.90;12.82;;;28.00;67.50;;;;;;1895446;75;21209;-79
2021/12/26 11:47:06;;;;;;;21.33;12.50;;;28.00;67.70;;;;;;1876457;76;21095;-79
2021/12/26 11:49:40;;;;;;;26.57;13.45;;;28.00;67.40;;;;;;1898439;75;21158;-79
2021/12/26 11:52:14;;;;;;;24.12;13.25;;;27.90;67.40;;;;;;1831071;77;21549;-79
2021/12/26 11:54:48;;;;;;;24.92;13.55;;;27.90;67.40;;;;;;1876455;76;21107;-78
2021/12/26 11:57:22;;;;;;;23.10;13.15;;;27.90;67.50;;;;;;1877782;75;21179;-79
2021/12/26 11:59:55;;;;;;;24.47;13.93;;;27.90;67.60;;;;;;1874435;76;21107;-78
2021/12/26 12:02:30;;;;;;;26.90;14.33;;;27.80;67.60;;;;;;1881300;75;21259;-78
2021/12/26 12:05:24;;;;;;;29.50;14.28;;;27.80;67.90;;;;;;1896382;75;21158;-79
2021/12/26 12:07:57;;;;;;;25.40;14.25;;;27.80;68.10;;;;;;1856784;76;21724;-78
2021/12/26 12:10:31;;;;;;;26.45;15.25;;;27.80;68.10;;;;;;1859762;77;21200;-79
2021/12/26 12:13:04;;;;;;;27.50;15.63;;;27.80;68.30;;;;;;1866385;77;21646;-78
2021/12/26 12:15:37;;;;;;;31.97;15.70;;;27.70;68.20;;;;;;1861997;77;21174;-78
2021/12/26 12:18:11;;;;;;;25.10;15.28;;;27.70;68.30;;;;;;1823337;78;21658;-79
2021/12/26 12:20:42;;;;;;;26.15;14.70;;;27.70;68.40;;;;;;1859378;77;21131;-80
2021/12/26 12:23:15;;;;;;;26.65;14.05;;;27.70;68.50;;;;;;1849937;77;21293;-80
2021/12/26 12:25:52;;;;;;;29.95;13.98;;;27.70;68.60;;;;;;1844757;77;21604;-79
2021/12/26 12:28:23;;;;;;;24.52;14.20;;;27.70;68.60;;;;;;1858878;76;21158;-80
2021/12/26 12:30:53;;;;;;;24.12;13.88;;;27.70;68.60;;;;;;1842623;77;21075;-80
2021/12/26 12:33:25;;;;;;;21.93;13.25;;;27.70;68.60;;;;;;1917255;74;21148;-80
2021/12/26 12:35:58;;;;;;;24.30;13.05;;;27.70;69.70;;;;;;1921088;74;21128;-80
2021/12/26 12:38:32;;;;;;;23.25;12.43;;;27.60;68.60;;;;;;1910582;74;21679;-80
2021/12/26 12:41:08;;;;;;;22.22;12.60;;;27.60;68.70;;;;;;1893506;74;21058;-80
2021/12/26 12:43:40;;;;;;;22.00;12.80;;;27.60;68.80;;;;;;1891926;76;21118;-80
2021/12/26 12:46:13;;;;;;;20.25;12.37;;;27.60;68.90;;;;;;1911365;74;21052;-79
2021/12/26 12:48:46;;;;;;;19.98;12.43;;;27.60;69.00;;;;;;1928474;73;21688;-79
2021/12/26 12:51:16;;;;;;;24.30;13.18;;;27.50;69.00;;;;;;1921171;73;21145;-79
2021/12/26 12:53:50;;;;;;;28.42;13.48;;;27.50;69.20;;;;;;1923202;74;21586;-79
2021/12/26 12:56:23;;;;;;;22.70;13.83;;;27.50;69.10;;;;;;1892678;74;21176;-78
2021/12/26 12:58:55;;;;;;;28.00;14.00;;;27.50;69.20;;;;;;1918900;74;21155;-79
2021/12/26 13:01:28;;;;;;;25.08;14.40;;;27.50;69.80;;;;;;1925794;73;21711;-79
2021/12/26 13:03:59;;;;;;;22.35;14.15;;;27.50;69.40;;;;;;1914651;73;21619;-79
2021/12/26 13:06:30;;;;;;;33.75;16.15;;;27.50;69.50;;;;;;1888251;76;21080;-79